Murphreesboro, Mississippi
Current Conditions -  °F | °C
As of 10:15 AM on Monday 22 Dec 2014 (Local Time) from KGNF Reporting Station
Haze Haze  
Wind Chill: 52°   Ceiling: 700
Heat Index: 52°   Visibility: 5mi
Dew Point: 50°   Wind: 5mph
Humidity: 94%   Direction: 90°E
Pressure: 29.83"   Gusts: NA
Location:  33.9874°N, 89.8756°W
Report Text: KGNF 221615Z AUTO 09004KT 5SM BR OVC007 11/10 A2983 RMK AO2
Loading
Personal Weather Stations






























Interactive Weather Map New forecast layout! Learn more

10-Day Weather Forecast

Advertisements
Track Severe Weather on mobile